logo
Search for airport 
image banner adimage banner adimage banner ad
image banner ad

LGIGOU - Igoumenitsa / Margariti

Located in , Greece

ICAO - , IATA -

Data provided by Airmate  

General information

Coordinates: N39°22'22" E20°24'49"
Elevation is 360 feet MSL.
 
View others Airports in Ioannina

Operational data

Special qualification required
Current time UTC:
Current local time:
METAR: LGKR 191620Z 35011KT 9000 -RA FEW010 SCT016TCU BKN025 12/11 Q1003 NOSIG
TAF: TAF LGKR 191100Z 1912/2012 04010KT 9999 SCT020 SCT080 BECMG 1919/1921 36010KT PROB40 TEMPO 1912/1923 5000 RA FEW016TCU BKN020 BKN070 PROB40 TEMPO 1912/1920 3000 TSRA SCT010 FEW016CB BKN020 BKN070 BECMG 2001/2003 FEW020 BECMG 2007/2009 30010KT
View NOTAMs / SUP AIP / TFR affecting this airport [VIEW]
Communications frequencies: [VIEW]

Runways:

RWY identifierQFULength (ft)Width (ft)SurfaceLDA (ft)
16156°88659GRASS886
34336°88659GRASS886

Airport contact information

Address: Greece

Satellite view of LGIGOU